sensor_id;sensor_type;location;lat;lon;timestamp;P1;durP1;ratioP1;P2;durP2;ratioP2
63874;SDS011;51595;24.180;-110.296;2022-08-05T00:02:20;2.85;;;1.50;;
63874;SDS011;51595;24.180;-110.296;2022-08-05T00:04:46;2.97;;;1.25;;
63874;SDS011;51595;24.180;-110.296;2022-08-05T00:07:14;5.53;;;1.45;;
63874;SDS011;51595;24.180;-110.296;2022-08-05T00:09:40;4.05;;;1.40;;
63874;SDS011;51595;24.180;-110.296;2022-08-05T00:12:07;5.95;;;1.50;;
63874;SDS011;51595;24.180;-110.296;2022-08-05T00:14:33;3.15;;;1.30;;
63874;SDS011;51595;24.180;-110.296;2022-08-05T00:17:00;6.05;;;1.52;;
63874;SDS011;51595;24.180;-110.296;2022-08-05T00:19:26;5.28;;;1.80;;
63874;SDS011;51595;24.180;-110.296;2022-08-05T00:21:53;2.50;;;1.05;;
63874;SDS011;51595;24.180;-110.296;2022-08-05T00:24:19;2.90;;;1.10;;
63874;SDS011;51595;24.180;-110.296;2022-08-05T00:26:46;4.45;;;1.30;;
63874;SDS011;51595;24.180;-110.296;2022-08-05T00:29:13;5.85;;;1.20;;
63874;SDS011;51595;24.180;-110.296;2022-08-05T00:31:39;4.90;;;1.30;;
63874;SDS011;51595;24.180;-110.296;2022-08-05T00:34:05;2.22;;;1.00;;
63874;SDS011;51595;24.180;-110.296;2022-08-05T00:36:32;15.65;;;1.52;;
63874;SDS011;51595;24.180;-110.296;2022-08-05T00:38:58;3.25;;;1.25;;
63874;SDS011;51595;24.180;-110.296;2022-08-05T00:41:25;4.00;;;1.13;;
63874;SDS011;51595;24.180;-110.296;2022-08-05T00:43:56;5.28;;;1.40;;
63874;SDS011;51595;24.180;-110.296;2022-08-05T00:46:23;3.35;;;1.30;;
63874;SDS011;51595;24.180;-110.296;2022-08-05T00:48:50;12.63;;;2.88;;
63874;SDS011;51595;24.180;-110.296;2022-08-05T00:51:18;15.52;;;3.03;;
63874;SDS011;51595;24.180;-110.296;2022-08-05T00:53:45;15.05;;;2.60;;
63874;SDS011;51595;24.180;-110.296;2022-08-05T00:56:13;16.27;;;3.78;;
63874;SDS011;51595;24.180;-110.296;2022-08-05T00:58:41;14.05;;;3.08;;
63874;SDS011;51595;24.180;-110.296;2022-08-05T01:01:08;12.35;;;2.83;;
63874;SDS011;51595;24.180;-110.296;2022-08-05T01:03:38;10.45;;;2.45;;
63874;SDS011;51595;24.180;-110.296;2022-08-05T01:06:06;7.78;;;2.60;;
63874;SDS011;51595;24.180;-110.296;2022-08-05T01:08:33;17.20;;;2.83;;
63874;SDS011;51595;24.180;-110.296;2022-08-05T01:11:03;15.77;;;2.85;;
63874;SDS011;51595;24.180;-110.296;2022-08-05T01:13:44;14.68;;;3.42;;
63874;SDS011;51595;24.180;-110.296;2022-08-05T01:27:38;10.48;;;2.13;;
63874;SDS011;51595;24.180;-110.296;2022-08-05T01:30:06;13.32;;;2.72;;
63874;SDS011;51595;24.180;-110.296;2022-08-05T01:32:33;7.55;;;2.30;;
63874;SDS011;51595;24.180;-110.296;2022-08-05T01:35:11;11.02;;;2.63;;
63874;SDS011;51595;24.180;-110.296;2022-08-05T01:37:53;7.00;;;2.33;;
63874;SDS011;51595;24.180;-110.296;2022-08-05T01:40:22;9.02;;;2.55;;
63874;SDS011;51595;24.180;-110.296;2022-08-05T01:42:53;11.32;;;3.03;;
63874;SDS011;51595;24.180;-110.296;2022-08-05T01:45:21;11.40;;;2.88;;
63874;SDS011;51595;24.180;-110.296;2022-08-05T01:47:49;11.38;;;2.47;;
63874;SDS011;51595;24.180;-110.296;2022-08-05T01:52:53;8.88;;;2.00;;
63874;SDS011;51595;24.180;-110.296;2022-08-05T01:55:22;10.05;;;2.30;;
63874;SDS011;51595;24.180;-110.296;2022-08-05T01:57:51;10.18;;;2.40;;
63874;SDS011;51595;24.180;-110.296;2022-08-05T02:00:20;5.90;;;2.42;;
63874;SDS011;51595;24.180;-110.296;2022-08-05T02:02:54;8.50;;;2.80;;
63874;SDS011;51595;24.180;-110.296;2022-08-05T02:05:26;11.27;;;2.30;;
63874;SDS011;51595;24.180;-110.296;2022-08-05T02:07:56;6.05;;;1.67;;
63874;SDS011;51595;24.180;-110.296;2022-08-05T02:10:24;10.55;;;2.40;;
63874;SDS011;51595;24.180;-110.296;2022-08-05T02:12:56;9.93;;;2.45;;
63874;SDS011;51595;24.180;-110.296;2022-08-05T02:15:42;7.60;;;2.38;;
63874;SDS011;51595;24.180;-110.296;2022-08-05T02:18:17;7.20;;;2.35;;
63874;SDS011;51595;24.180;-110.296;2022-08-05T02:20:56;12.80;;;2.47;;
63874;SDS011;51595;24.180;-110.296;2022-08-05T02:23:28;9.98;;;2.42;;
63874;SDS011;51595;24.180;-110.296;2022-08-05T02:25:57;11.30;;;2.55;;
63874;SDS011;51595;24.180;-110.296;2022-08-05T02:28:28;11.02;;;2.90;;
63874;SDS011;51595;24.180;-110.296;2022-08-05T02:31:01;8.75;;;2.47;;
63874;SDS011;51595;24.180;-110.296;2022-08-05T02:33:32;13.18;;;2.60;;
63874;SDS011;51595;24.180;-110.296;2022-08-05T02:36:02;9.13;;;2.45;;
63874;SDS011;51595;24.180;-110.296;2022-08-05T02:38:33;8.65;;;2.40;;
63874;SDS011;51595;24.180;-110.296;2022-08-05T02:41:02;8.80;;;2.30;;
63874;SDS011;51595;24.180;-110.296;2022-08-05T02:43:30;11.35;;;2.92;;
63874;SDS011;51595;24.180;-110.296;2022-08-05T02:45:58;13.70;;;2.83;;
63874;SDS011;51595;24.180;-110.296;2022-08-05T02:48:25;8.38;;;2.35;;
63874;SDS011;51595;24.180;-110.296;2022-08-05T02:50:52;9.93;;;2.50;;
63874;SDS011;51595;24.180;-110.296;2022-08-05T02:53:19;6.95;;;2.15;;
63874;SDS011;51595;24.180;-110.296;2022-08-05T02:55:47;7.13;;;2.17;;
63874;SDS011;51595;24.180;-110.296;2022-08-05T02:58:17;9.57;;;1.90;;
63874;SDS011;51595;24.180;-110.296;2022-08-05T03:00:46;7.22;;;2.10;;
63874;SDS011;51595;24.180;-110.296;2022-08-05T03:03:18;8.30;;;2.15;;
63874;SDS011;51595;24.180;-110.296;2022-08-05T03:05:46;11.77;;;2.55;;
63874;SDS011;51595;24.180;-110.296;2022-08-05T03:08:16;8.23;;;1.98;;
63874;SDS011;51595;24.180;-110.296;2022-08-05T03:10:44;9.60;;;2.17;;
63874;SDS011;51595;24.180;-110.296;2022-08-05T03:13:13;7.03;;;1.98;;
63874;SDS011;51595;24.180;-110.296;2022-08-05T03:15:43;7.45;;;1.98;;
63874;SDS011;51595;24.180;-110.296;2022-08-05T03:18:11;6.22;;;1.77;;
63874;SDS011;51595;24.180;-110.296;2022-08-05T03:20:40;8.13;;;2.13;;
63874;SDS011;51595;24.180;-110.296;2022-08-05T03:23:08;11.07;;;2.33;;
63874;SDS011;51595;24.180;-110.296;2022-08-05T03:25:38;6.63;;;2.00;;
63874;SDS011;51595;24.180;-110.296;2022-08-05T03:28:07;10.88;;;2.10;;
63874;SDS011;51595;24.180;-110.296;2022-08-05T03:30:36;4.90;;;2.03;;
63874;SDS011;51595;24.180;-110.296;2022-08-05T03:33:05;10.70;;;2.13;;
63874;SDS011;51595;24.180;-110.296;2022-08-05T03:35:33;5.65;;;1.67;;
63874;SDS011;51595;24.180;-110.296;2022-08-05T03:38:02;5.53;;;2.33;;
63874;SDS011;51595;24.180;-110.296;2022-08-05T03:40:30;6.35;;;2.40;;
63874;SDS011;51595;24.180;-110.296;2022-08-05T03:42:59;8.98;;;1.90;;
63874;SDS011;51595;24.180;-110.296;2022-08-05T03:45:27;7.57;;;1.90;;
63874;SDS011;51595;24.180;-110.296;2022-08-05T03:47:59;11.93;;;2.40;;
63874;SDS011;51595;24.180;-110.296;2022-08-05T03:50:38;14.70;;;2.13;;
63874;SDS011;51595;24.180;-110.296;2022-08-05T03:53:24;5.57;;;2.10;;
63874;SDS011;51595;24.180;-110.296;2022-08-05T03:58:43;8.13;;;1.98;;
63874;SDS011;51595;24.180;-110.296;2022-08-05T04:01:13;7.50;;;1.98;;
63874;SDS011;51595;24.180;-110.296;2022-08-05T04:03:47;8.02;;;2.15;;
63874;SDS011;51595;24.180;-110.296;2022-08-05T04:06:17;11.07;;;2.17;;
63874;SDS011;51595;24.180;-110.296;2022-08-05T04:08:46;16.50;;;2.80;;
63874;SDS011;51595;24.180;-110.296;2022-08-05T04:11:15;8.18;;;2.70;;
63874;SDS011;51595;24.180;-110.296;2022-08-05T04:13:43;13.65;;;2.33;;
63874;SDS011;51595;24.180;-110.296;2022-08-05T04:16:12;12.57;;;2.97;;
63874;SDS011;51595;24.180;-110.296;2022-08-05T04:18:40;11.30;;;2.85;;
63874;SDS011;51595;24.180;-110.296;2022-08-05T04:21:11;10.55;;;2.70;;
63874;SDS011;51595;24.180;-110.296;2022-08-05T04:23:40;12.60;;;2.40;;
63874;SDS011;51595;24.180;-110.296;2022-08-05T04:26:08;11.07;;;2.53;;
63874;SDS011;51595;24.180;-110.296;2022-08-05T04:28:37;11.68;;;2.72;;
63874;SDS011;51595;24.180;-110.296;2022-08-05T04:31:05;11.45;;;2.63;;
63874;SDS011;51595;24.180;-110.296;2022-08-05T04:33:33;8.98;;;2.10;;
63874;SDS011;51595;24.180;-110.296;2022-08-05T04:36:01;11.15;;;2.38;;
63874;SDS011;51595;24.180;-110.296;2022-08-05T04:38:30;6.78;;;2.33;;
63874;SDS011;51595;24.180;-110.296;2022-08-05T04:40:58;9.60;;;2.90;;
63874;SDS011;51595;24.180;-110.296;2022-08-05T04:43:26;14.27;;;2.50;;
63874;SDS011;51595;24.180;-110.296;2022-08-05T04:45:54;10.95;;;2.75;;
63874;SDS011;51595;24.180;-110.296;2022-08-05T04:48:22;15.25;;;3.00;;
63874;SDS011;51595;24.180;-110.296;2022-08-05T04:50:51;7.35;;;2.30;;
63874;SDS011;51595;24.180;-110.296;2022-08-05T04:53:19;11.13;;;2.28;;
63874;SDS011;51595;24.180;-110.296;2022-08-05T04:55:47;20.88;;;2.58;;
63874;SDS011;51595;24.180;-110.296;2022-08-05T04:58:16;10.95;;;2.30;;
63874;SDS011;51595;24.180;-110.296;2022-08-05T05:00:45;16.67;;;3.20;;
63874;SDS011;51595;24.180;-110.296;2022-08-05T05:03:13;8.75;;;2.28;;
63874;SDS011;51595;24.180;-110.296;2022-08-05T05:05:41;11.73;;;2.60;;
63874;SDS011;51595;24.180;-110.296;2022-08-05T05:08:10;15.60;;;2.72;;
63874;SDS011;51595;24.180;-110.296;2022-08-05T05:10:40;15.10;;;2.72;;
63874;SDS011;51595;24.180;-110.296;2022-08-05T05:13:10;10.40;;;2.28;;
63874;SDS011;51595;24.180;-110.296;2022-08-05T05:15:40;15.32;;;3.05;;
63874;SDS011;51595;24.180;-110.296;2022-08-05T05:18:08;11.48;;;2.65;;
63874;SDS011;51595;24.180;-110.296;2022-08-05T05:20:45;13.73;;;3.00;;
63874;SDS011;51595;24.180;-110.296;2022-08-05T05:23:13;12.40;;;2.60;;
63874;SDS011;51595;24.180;-110.296;2022-08-05T05:25:42;19.83;;;3.33;;
63874;SDS011;51595;24.180;-110.296;2022-08-05T05:28:10;15.48;;;2.63;;
63874;SDS011;51595;24.180;-110.296;2022-08-05T05:30:38;13.60;;;2.70;;
63874;SDS011;51595;24.180;-110.296;2022-08-05T05:33:07;10.52;;;2.53;;
63874;SDS011;51595;24.180;-110.296;2022-08-05T05:35:35;7.82;;;2.33;;
63874;SDS011;51595;24.180;-110.296;2022-08-05T05:38:02;12.45;;;2.65;;
63874;SDS011;51595;24.180;-110.296;2022-08-05T05:40:31;6.95;;;1.95;;
63874;SDS011;51595;24.180;-110.296;2022-08-05T05:42:58;10.13;;;2.80;;
63874;SDS011;51595;24.180;-110.296;2022-08-05T05:45:26;12.90;;;2.92;;
63874;SDS011;51595;24.180;-110.296;2022-08-05T05:47:52;10.10;;;2.60;;
63874;SDS011;51595;24.180;-110.296;2022-08-05T05:50:19;15.60;;;2.40;;
63874;SDS011;51595;24.180;-110.296;2022-08-05T05:52:46;14.90;;;2.70;;
63874;SDS011;51595;24.180;-110.296;2022-08-05T05:55:14;8.77;;;2.10;;
63874;SDS011;51595;24.180;-110.296;2022-08-05T05:57:42;12.63;;;2.42;;
63874;SDS011;51595;24.180;-110.296;2022-08-05T06:00:11;12.70;;;2.80;;
63874;SDS011;51595;24.180;-110.296;2022-08-05T06:02:43;10.05;;;2.20;;
63874;SDS011;51595;24.180;-110.296;2022-08-05T06:05:11;11.95;;;2.50;;
63874;SDS011;51595;24.180;-110.296;2022-08-05T06:07:38;9.23;;;2.15;;
63874;SDS011;51595;24.180;-110.296;2022-08-05T06:10:06;7.88;;;2.67;;
63874;SDS011;51595;24.180;-110.296;2022-08-05T06:12:34;12.65;;;2.17;;
63874;SDS011;51595;24.180;-110.296;2022-08-05T06:15:02;10.02;;;2.67;;
63874;SDS011;51595;24.180;-110.296;2022-08-05T06:17:29;7.40;;;1.88;;
63874;SDS011;51595;24.180;-110.296;2022-08-05T06:19:56;6.55;;;1.95;;
63874;SDS011;51595;24.180;-110.296;2022-08-05T06:22:24;7.68;;;2.20;;
63874;SDS011;51595;24.180;-110.296;2022-08-05T06:24:51;7.88;;;1.95;;
63874;SDS011;51595;24.180;-110.296;2022-08-05T06:27:18;11.07;;;2.20;;
63874;SDS011;51595;24.180;-110.296;2022-08-05T06:29:45;9.30;;;1.92;;
63874;SDS011;51595;24.180;-110.296;2022-08-05T06:32:11;5.25;;;1.95;;
63874;SDS011;51595;24.180;-110.296;2022-08-05T06:34:38;9.13;;;2.08;;
63874;SDS011;51595;24.180;-110.296;2022-08-05T06:37:05;9.00;;;2.03;;
63874;SDS011;51595;24.180;-110.296;2022-08-05T06:39:31;7.03;;;2.60;;
63874;SDS011;51595;24.180;-110.296;2022-08-05T06:41:59;8.32;;;1.90;;
63874;SDS011;51595;24.180;-110.296;2022-08-05T06:44:27;8.63;;;1.88;;
63874;SDS011;51595;24.180;-110.296;2022-08-05T06:46:54;7.93;;;1.90;;
63874;SDS011;51595;24.180;-110.296;2022-08-05T06:49:21;4.68;;;1.58;;
63874;SDS011;51595;24.180;-110.296;2022-08-05T06:51:48;12.07;;;2.22;;
63874;SDS011;51595;24.180;-110.296;2022-08-05T06:54:15;6.40;;;1.92;;
63874;SDS011;51595;24.180;-110.296;2022-08-05T06:56:42;7.43;;;1.95;;
63874;SDS011;51595;24.180;-110.296;2022-08-05T06:59:08;9.00;;;1.92;;
63874;SDS011;51595;24.180;-110.296;2022-08-05T07:01:38;4.97;;;1.52;;
63874;SDS011;51595;24.180;-110.296;2022-08-05T07:04:05;7.15;;;1.75;;
63874;SDS011;51595;24.180;-110.296;2022-08-05T07:06:32;4.63;;;1.67;;
63874;SDS011;51595;24.180;-110.296;2022-08-05T07:08:58;6.03;;;1.83;;
63874;SDS011;51595;24.180;-110.296;2022-08-05T07:11:29;3.88;;;1.70;;
63874;SDS011;51595;24.180;-110.296;2022-08-05T07:13:56;5.55;;;1.95;;
63874;SDS011;51595;24.180;-110.296;2022-08-05T07:16:40;8.70;;;1.67;;
63874;SDS011;51595;24.180;-110.296;2022-08-05T07:21:47;3.97;;;1.40;;
63874;SDS011;51595;24.180;-110.296;2022-08-05T07:24:15;10.10;;;2.08;;
63874;SDS011;51595;24.180;-110.296;2022-08-05T07:26:42;11.40;;;2.30;;
63874;SDS011;51595;24.180;-110.296;2022-08-05T07:29:10;8.80;;;1.95;;
63874;SDS011;51595;24.180;-110.296;2022-08-05T07:31:38;7.20;;;1.80;;
63874;SDS011;51595;24.180;-110.296;2022-08-05T07:34:05;6.85;;;2.35;;
63874;SDS011;51595;24.180;-110.296;2022-08-05T07:36:32;3.50;;;1.45;;
63874;SDS011;51595;24.180;-110.296;2022-08-05T07:38:59;4.40;;;1.38;;
63874;SDS011;51595;24.180;-110.296;2022-08-05T07:41:27;8.25;;;1.70;;
63874;SDS011;51595;24.180;-110.296;2022-08-05T07:43:54;5.80;;;1.52;;
63874;SDS011;51595;24.180;-110.296;2022-08-05T07:46:22;4.15;;;1.33;;
63874;SDS011;51595;24.180;-110.296;2022-08-05T07:48:50;3.92;;;1.90;;
63874;SDS011;51595;24.180;-110.296;2022-08-05T07:51:16;5.03;;;1.83;;
63874;SDS011;51595;24.180;-110.296;2022-08-05T07:53:43;3.38;;;1.55;;
63874;SDS011;51595;24.180;-110.296;2022-08-05T07:56:10;4.25;;;1.80;;
63874;SDS011;51595;24.180;-110.296;2022-08-05T07:58:36;8.65;;;2.40;;
63874;SDS011;51595;24.180;-110.296;2022-08-05T08:01:03;7.30;;;1.80;;
63874;SDS011;51595;24.180;-110.296;2022-08-05T08:03:29;4.32;;;1.58;;
63874;SDS011;51595;24.180;-110.296;2022-08-05T08:05:56;6.88;;;1.98;;
63874;SDS011;51595;24.180;-110.296;2022-08-05T08:08:22;9.35;;;1.98;;
63874;SDS011;51595;24.180;-110.296;2022-08-05T08:10:49;7.40;;;2.42;;
63874;SDS011;51595;24.180;-110.296;2022-08-05T08:13:16;7.13;;;2.30;;
63874;SDS011;51595;24.180;-110.296;2022-08-05T08:15:42;7.10;;;1.92;;
63874;SDS011;51595;24.180;-110.296;2022-08-05T08:18:08;7.95;;;2.30;;
63874;SDS011;51595;24.180;-110.296;2022-08-05T08:20:35;6.30;;;2.65;;
63874;SDS011;51595;24.180;-110.296;2022-08-05T08:23:02;11.70;;;2.33;;
63874;SDS011;51595;24.180;-110.296;2022-08-05T08:25:28;6.00;;;2.28;;
63874;SDS011;51595;24.180;-110.296;2022-08-05T08:27:55;8.70;;;2.15;;
63874;SDS011;51595;24.180;-110.296;2022-08-05T08:30:23;12.05;;;2.35;;
63874;SDS011;51595;24.180;-110.296;2022-08-05T08:32:50;4.55;;;1.80;;
63874;SDS011;51595;24.180;-110.296;2022-08-05T08:35:16;10.23;;;2.15;;
63874;SDS011;51595;24.180;-110.296;2022-08-05T08:37:43;5.85;;;1.83;;
63874;SDS011;51595;24.180;-110.296;2022-08-05T08:40:10;6.53;;;1.70;;
63874;SDS011;51595;24.180;-110.296;2022-08-05T08:42:37;4.78;;;2.00;;
63874;SDS011;51595;24.180;-110.296;2022-08-05T08:45:04;3.60;;;1.50;;
63874;SDS011;51595;24.180;-110.296;2022-08-05T08:47:32;5.05;;;1.75;;
63874;SDS011;51595;24.180;-110.296;2022-08-05T08:49:59;9.43;;;2.08;;
63874;SDS011;51595;24.180;-110.296;2022-08-05T08:52:28;7.07;;;2.05;;
63874;SDS011;51595;24.180;-110.296;2022-08-05T08:54:57;8.40;;;1.90;;
63874;SDS011;51595;24.180;-110.296;2022-08-05T08:57:24;4.63;;;1.90;;
63874;SDS011;51595;24.180;-110.296;2022-08-05T08:59:51;7.78;;;1.70;;
63874;SDS011;51595;24.180;-110.296;2022-08-05T09:02:18;6.35;;;2.03;;
63874;SDS011;51595;24.180;-110.296;2022-08-05T09:04:46;8.23;;;1.83;;
63874;SDS011;51595;24.180;-110.296;2022-08-05T09:07:12;6.45;;;1.90;;
63874;SDS011;51595;24.180;-110.296;2022-08-05T09:09:39;10.05;;;1.88;;
63874;SDS011;51595;24.180;-110.296;2022-08-05T09:12:07;8.10;;;1.55;;
63874;SDS011;51595;24.180;-110.296;2022-08-05T09:14:34;6.20;;;1.80;;
63874;SDS011;51595;24.180;-110.296;2022-08-05T09:17:05;4.25;;;1.55;;
63874;SDS011;51595;24.180;-110.296;2022-08-05T09:19:33;5.57;;;2.03;;
63874;SDS011;51595;24.180;-110.296;2022-08-05T09:22:01;6.32;;;1.92;;
63874;SDS011;51595;24.180;-110.296;2022-08-05T09:24:28;4.40;;;1.80;;
63874;SDS011;51595;24.180;-110.296;2022-08-05T09:26:54;7.00;;;1.90;;
63874;SDS011;51595;24.180;-110.296;2022-08-05T09:29:36;4.57;;;1.50;;
63874;SDS011;51595;24.180;-110.296;2022-08-05T09:32:06;7.50;;;1.98;;
63874;SDS011;51595;24.180;-110.296;2022-08-05T09:34:55;5.47;;;2.00;;
63874;SDS011;51595;24.180;-110.296;2022-08-05T09:37:24;6.85;;;1.70;;
63874;SDS011;51595;24.180;-110.296;2022-08-05T09:39:51;3.67;;;1.50;;
63874;SDS011;51595;24.180;-110.296;2022-08-05T09:42:18;5.05;;;1.75;;
63874;SDS011;51595;24.180;-110.296;2022-08-05T09:44:46;6.38;;;1.70;;
63874;SDS011;51595;24.180;-110.296;2022-08-05T09:47:22;9.25;;;1.50;;
63874;SDS011;51595;24.180;-110.296;2022-08-05T09:49:51;3.78;;;1.63;;
63874;SDS011;51595;24.180;-110.296;2022-08-05T09:55:00;4.75;;;1.50;;
63874;SDS011;51595;24.180;-110.296;2022-08-05T10:02:38;6.63;;;1.92;;
63874;SDS011;51595;24.180;-110.296;2022-08-05T10:05:19;3.10;;;1.52;;
63874;SDS011;51595;24.180;-110.296;2022-08-05T10:07:52;5.97;;;1.75;;
63874;SDS011;51595;24.180;-110.296;2022-08-05T10:10:30;10.70;;;1.98;;
63874;SDS011;51595;24.180;-110.296;2022-08-05T10:13:01;4.57;;;1.55;;
63874;SDS011;51595;24.180;-110.296;2022-08-05T10:15:29;4.35;;;1.40;;
63874;SDS011;51595;24.180;-110.296;2022-08-05T10:18:10;4.90;;;1.45;;
63874;SDS011;51595;24.180;-110.296;2022-08-05T10:20:51;7.10;;;1.75;;
63874;SDS011;51595;24.180;-110.296;2022-08-05T10:23:23;3.70;;;1.40;;
63874;SDS011;51595;24.180;-110.296;2022-08-05T10:26:04;4.38;;;1.60;;
63874;SDS011;51595;24.180;-110.296;2022-08-05T10:28:32;6.60;;;1.40;;
63874;SDS011;51595;24.180;-110.296;2022-08-05T10:30:59;8.13;;;1.63;;
63874;SDS011;51595;24.180;-110.296;2022-08-05T10:33:27;4.60;;;1.60;;
63874;SDS011;51595;24.180;-110.296;2022-08-05T10:35:56;7.88;;;1.67;;
63874;SDS011;51595;24.180;-110.296;2022-08-05T10:38:24;4.15;;;1.60;;
63874;SDS011;51595;24.180;-110.296;2022-08-05T10:41:12;3.92;;;1.55;;
63874;SDS011;51595;24.180;-110.296;2022-08-05T10:46:22;2.15;;;1.30;;
63874;SDS011;51595;24.180;-110.296;2022-08-05T10:48:49;5.90;;;1.45;;
63874;SDS011;51595;24.180;-110.296;2022-08-05T10:51:24;3.83;;;1.45;;
63874;SDS011;51595;24.180;-110.296;2022-08-05T10:53:52;6.32;;;1.60;;
63874;SDS011;51595;24.180;-110.296;2022-08-05T10:56:21;5.05;;;1.83;;
63874;SDS011;51595;24.180;-110.296;2022-08-05T11:01:34;5.32;;;1.33;;
63874;SDS011;51595;24.180;-110.296;2022-08-05T11:09:37;6.72;;;1.73;;
63874;SDS011;51595;24.180;-110.296;2022-08-05T11:12:59;4.45;;;1.38;;
63874;SDS011;51595;24.180;-110.296;2022-08-05T11:17:44;6.97;;;1.92;;
63874;SDS011;51595;24.180;-110.296;2022-08-05T11:28:46;5.50;;;1.70;;
63874;SDS011;51595;24.180;-110.296;2022-08-05T11:36:17;5.00;;;1.60;;
63874;SDS011;51595;24.180;-110.296;2022-08-05T11:39:04;8.02;;;2.08;;
63874;SDS011;51595;24.180;-110.296;2022-08-05T11:41:34;10.00;;;1.70;;
63874;SDS011;51595;24.180;-110.296;2022-08-05T11:44:02;5.78;;;1.95;;
63874;SDS011;51595;24.180;-110.296;2022-08-05T11:46:39;5.07;;;1.90;;
63874;SDS011;51595;24.180;-110.296;2022-08-05T11:49:14;8.13;;;2.40;;
63874;SDS011;51595;24.180;-110.296;2022-08-05T11:51:43;5.90;;;1.60;;
63874;SDS011;51595;24.180;-110.296;2022-08-05T11:54:11;11.90;;;2.55;;
63874;SDS011;51595;24.180;-110.296;2022-08-05T11:56:46;6.15;;;1.90;;
63874;SDS011;51595;24.180;-110.296;2022-08-05T11:59:15;7.05;;;1.85;;
63874;SDS011;51595;24.180;-110.296;2022-08-05T12:04:24;11.35;;;2.60;;
63874;SDS011;51595;24.180;-110.296;2022-08-05T12:06:57;7.72;;;1.90;;
63874;SDS011;51595;24.180;-110.296;2022-08-05T12:09:25;7.03;;;2.28;;
63874;SDS011;51595;24.180;-110.296;2022-08-05T12:11:54;6.30;;;2.00;;
63874;SDS011;51595;24.180;-110.296;2022-08-05T12:14:21;6.47;;;2.00;;
63874;SDS011;51595;24.180;-110.296;2022-08-05T12:16:49;9.32;;;2.20;;
63874;SDS011;51595;24.180;-110.296;2022-08-05T12:19:16;7.97;;;2.60;;
63874;SDS011;51595;24.180;-110.296;2022-08-05T12:21:47;8.35;;;1.98;;
63874;SDS011;51595;24.180;-110.296;2022-08-05T12:24:16;8.43;;;2.42;;
63874;SDS011;51595;24.180;-110.296;2022-08-05T12:29:18;8.68;;;2.45;;
63874;SDS011;51595;24.180;-110.296;2022-08-05T12:31:54;9.65;;;2.47;;
63874;SDS011;51595;24.180;-110.296;2022-08-05T12:34:25;8.73;;;2.15;;
63874;SDS011;51595;24.180;-110.296;2022-08-05T12:36:54;10.98;;;2.50;;
63874;SDS011;51595;24.180;-110.296;2022-08-05T12:39:24;7.82;;;2.53;;
63874;SDS011;51595;24.180;-110.296;2022-08-05T12:42:00;16.05;;;2.97;;
63874;SDS011;51595;24.180;-110.296;2022-08-05T12:44:27;16.70;;;2.22;;
63874;SDS011;51595;24.180;-110.296;2022-08-05T12:46:54;7.95;;;2.50;;
63874;SDS011;51595;24.180;-110.296;2022-08-05T12:49:20;11.77;;;2.70;;
63874;SDS011;51595;24.180;-110.296;2022-08-05T12:51:56;12.40;;;3.15;;
63874;SDS011;51595;24.180;-110.296;2022-08-05T12:54:30;9.57;;;3.00;;
63874;SDS011;51595;24.180;-110.296;2022-08-05T12:56:58;12.65;;;3.47;;
63874;SDS011;51595;24.180;-110.296;2022-08-05T12:59:31;13.40;;;2.90;;
63874;SDS011;51595;24.180;-110.296;2022-08-05T13:02:07;12.95;;;2.67;;
63874;SDS011;51595;24.180;-110.296;2022-08-05T13:04:37;12.38;;;2.92;;
63874;SDS011;51595;24.180;-110.296;2022-08-05T13:07:09;9.10;;;2.78;;
63874;SDS011;51595;24.180;-110.296;2022-08-05T13:09:37;17.50;;;3.58;;
63874;SDS011;51595;24.180;-110.296;2022-08-05T13:12:06;13.93;;;3.30;;
63874;SDS011;51595;24.180;-110.296;2022-08-05T13:20:08;16.70;;;3.58;;
63874;SDS011;51595;24.180;-110.296;2022-08-05T13:22:48;17.23;;;3.60;;
63874;SDS011;51595;24.180;-110.296;2022-08-05T13:25:18;12.18;;;2.92;;
63874;SDS011;51595;24.180;-110.296;2022-08-05T13:27:47;17.98;;;3.40;;
63874;SDS011;51595;24.180;-110.296;2022-08-05T13:30:18;11.23;;;3.38;;
63874;SDS011;51595;24.180;-110.296;2022-08-05T13:32:48;23.00;;;4.10;;
63874;SDS011;51595;24.180;-110.296;2022-08-05T13:35:16;20.85;;;3.72;;
63874;SDS011;51595;24.180;-110.296;2022-08-05T13:37:43;16.05;;;3.67;;
63874;SDS011;51595;24.180;-110.296;2022-08-05T13:40:10;16.90;;;4.10;;
63874;SDS011;51595;24.180;-110.296;2022-08-05T13:42:37;14.52;;;3.63;;
63874;SDS011;51595;24.180;-110.296;2022-08-05T13:45:04;23.65;;;4.13;;
63874;SDS011;51595;24.180;-110.296;2022-08-05T13:47:32;27.58;;;4.15;;
63874;SDS011;51595;24.180;-110.296;2022-08-05T13:49:59;18.27;;;3.20;;
63874;SDS011;51595;24.180;-110.296;2022-08-05T13:52:26;22.73;;;4.30;;
63874;SDS011;51595;24.180;-110.296;2022-08-05T13:54:56;15.88;;;3.95;;
63874;SDS011;51595;24.180;-110.296;2022-08-05T13:57:22;15.40;;;3.90;;
63874;SDS011;51595;24.180;-110.296;2022-08-05T13:59:49;33.03;;;4.40;;
63874;SDS011;51595;24.180;-110.296;2022-08-05T14:02:16;20.80;;;3.75;;
63874;SDS011;51595;24.180;-110.296;2022-08-05T14:04:44;20.75;;;4.18;;
63874;SDS011;51595;24.180;-110.296;2022-08-05T14:07:31;25.25;;;4.85;;
63874;SDS011;51595;24.180;-110.296;2022-08-05T14:09:59;22.92;;;4.18;;
63874;SDS011;51595;24.180;-110.296;2022-08-05T14:12:25;17.80;;;3.65;;
63874;SDS011;51595;24.180;-110.296;2022-08-05T14:14:52;27.25;;;4.72;;
63874;SDS011;51595;24.180;-110.296;2022-08-05T14:17:32;30.58;;;4.32;;
63874;SDS011;51595;24.180;-110.296;2022-08-05T14:19:59;18.05;;;4.22;;
63874;SDS011;51595;24.180;-110.296;2022-08-05T14:22:25;28.85;;;3.83;;
63874;SDS011;51595;24.180;-110.296;2022-08-05T14:24:51;24.10;;;4.60;;
63874;SDS011;51595;24.180;-110.296;2022-08-05T14:27:18;27.52;;;4.20;;
63874;SDS011;51595;24.180;-110.296;2022-08-05T14:29:44;21.58;;;4.28;;
63874;SDS011;51595;24.180;-110.296;2022-08-05T14:32:11;20.10;;;3.83;;
63874;SDS011;51595;24.180;-110.296;2022-08-05T14:34:37;23.50;;;4.15;;
63874;SDS011;51595;24.180;-110.296;2022-08-05T14:37:04;25.40;;;3.95;;
63874;SDS011;51595;24.180;-110.296;2022-08-05T14:39:31;32.50;;;4.40;;
63874;SDS011;51595;24.180;-110.296;2022-08-05T14:41:58;26.73;;;4.10;;
63874;SDS011;51595;24.180;-110.296;2022-08-05T14:44:24;24.77;;;3.70;;
63874;SDS011;51595;24.180;-110.296;2022-08-05T14:46:51;33.72;;;5.22;;
63874;SDS011;51595;24.180;-110.296;2022-08-05T14:49:17;25.02;;;4.20;;
63874;SDS011;51595;24.180;-110.296;2022-08-05T14:51:44;28.92;;;3.65;;
63874;SDS011;51595;24.180;-110.296;2022-08-05T14:54:11;23.58;;;3.75;;
63874;SDS011;51595;24.180;-110.296;2022-08-05T14:56:37;28.13;;;4.25;;
63874;SDS011;51595;24.180;-110.296;2022-08-05T14:59:04;24.52;;;3.90;;
63874;SDS011;51595;24.180;-110.296;2022-08-05T15:01:31;30.10;;;3.83;;
63874;SDS011;51595;24.180;-110.296;2022-08-05T15:03:57;22.58;;;5.07;;
63874;SDS011;51595;24.180;-110.296;2022-08-05T15:06:24;22.73;;;4.18;;
63874;SDS011;51595;24.180;-110.296;2022-08-05T15:08:52;22.55;;;3.75;;
63874;SDS011;51595;24.180;-110.296;2022-08-05T15:11:20;22.25;;;3.00;;
63874;SDS011;51595;24.180;-110.296;2022-08-05T15:13:47;16.98;;;3.25;;
63874;SDS011;51595;24.180;-110.296;2022-08-05T15:16:14;23.85;;;3.25;;
63874;SDS011;51595;24.180;-110.296;2022-08-05T15:18:40;15.30;;;2.97;;
63874;SDS011;51595;24.180;-110.296;2022-08-05T15:21:07;14.90;;;2.65;;